createdAt,value
2023-05-10T00:01:20.491Z,100909.19
2023-05-10T00:03:47.301Z,100907.47
2023-05-10T00:06:14.443Z,100915.56
2023-05-10T00:08:42.660Z,100908.53
2023-05-10T00:11:09.514Z,100910.56
2023-05-10T00:13:36.312Z,100905.97
2023-05-10T00:16:03.133Z,100899.16
2023-05-10T00:18:29.894Z,100908.22
2023-05-10T00:20:56.615Z,100896.72
2023-05-10T00:23:23.318Z,100895.13
2023-05-10T00:25:51.553Z,100882.28
2023-05-10T00:28:18.262Z,100896.22
2023-05-10T00:30:44.964Z,100880.16
2023-05-10T00:33:11.693Z,100891.41
2023-05-10T00:35:38.440Z,100897.63
2023-05-10T00:38:05.235Z,100893.91
2023-05-10T00:40:31.920Z,100904.75
2023-05-10T00:43:05.188Z,100905.81
2023-05-10T00:45:33.552Z,100901.22
2023-05-10T00:48:01.921Z,100893.03
2023-05-10T00:50:29.413Z,100894.88
2023-05-10T00:52:56.458Z,100883.69
2023-05-10T00:55:23.378Z,100895.91
2023-05-10T00:57:50.310Z,100883.69
2023-05-10T01:00:18.959Z,100876.03
2023-05-10T01:02:45.911Z,100888.78
2023-05-10T01:05:13.136Z,100894.50
2023-05-10T01:07:40.562Z,100892.81
2023-05-10T01:10:08.823Z,100887.91
2023-05-10T01:12:39.321Z,100887.09
2023-05-10T01:15:09.046Z,100897.94
2023-05-10T01:17:40.385Z,100897.84
2023-05-10T01:20:10.293Z,100900.31
2023-05-10T01:23:04.256Z,100895.00
2023-05-10T01:25:57.498Z,100893.41
2023-05-10T01:28:53.940Z,100895.41
2023-05-10T01:31:34.466Z,100902.66
2023-05-10T01:34:08.543Z,100896.03
2023-05-10T01:36:44.587Z,100903.66
2023-05-10T01:39:16.754Z,100908.28
2023-05-10T01:41:49.492Z,100904.56
2023-05-10T01:44:21.635Z,100904.34
2023-05-10T01:46:56.587Z,100913.50
2023-05-10T01:49:30.171Z,100901.47
2023-05-10T01:52:05.002Z,100903.25
2023-05-10T01:54:34.820Z,100909.44
2023-05-10T01:57:06.306Z,100907.00
2023-05-10T01:59:36.574Z,100914.13
2023-05-10T02:02:05.535Z,100903.47
2023-05-10T02:04:38.109Z,100915.63
2023-05-10T02:07:05.631Z,100911.16
2023-05-10T02:09:34.453Z,100916.25
2023-05-10T02:12:04.038Z,100918.19
2023-05-10T02:14:33.281Z,100919.66
2023-05-10T02:17:01.439Z,100921.34
2023-05-10T02:19:30.661Z,100919.47
2023-05-10T02:22:01.777Z,100920.84
2023-05-10T02:24:29.736Z,100924.25
2023-05-10T02:26:58.214Z,100923.50
2023-05-10T02:29:26.889Z,100934.81
2023-05-10T02:31:56.132Z,100928.41
2023-05-10T02:34:24.213Z,100930.06
2023-05-10T02:36:53.081Z,100921.34
2023-05-10T02:39:22.526Z,100931.56
2023-05-10T02:41:51.284Z,100941.34
2023-05-10T02:44:20.387Z,100936.16
2023-05-10T02:46:47.915Z,100936.16
2023-05-10T02:49:15.092Z,100943.50
2023-05-10T02:51:44.881Z,100939.25
2023-05-10T02:54:16.442Z,100938.41
2023-05-10T02:57:04.245Z,100931.63
2023-05-10T02:59:31.603Z,100953.25
2023-05-10T03:01:58.692Z,100950.97
2023-05-10T03:04:25.473Z,100953.34
2023-05-10T03:06:55.202Z,100954.63
2023-05-10T03:09:21.909Z,100956.00
2023-05-10T03:12:01.008Z,100949.41
2023-05-10T03:14:42.192Z,100947.06
2023-05-10T03:17:15.976Z,100956.31
2023-05-10T03:19:48.636Z,100955.25
2023-05-10T03:22:22.389Z,100954.00
2023-05-10T03:24:50.076Z,100956.75
2023-05-10T03:27:19.098Z,100951.84
2023-05-10T03:29:47.073Z,100960.25
2023-05-10T03:32:14.521Z,100955.69
2023-05-10T03:34:42.664Z,100966.09
2023-05-10T03:37:09.700Z,100964.84
2023-05-10T03:39:36.604Z,100966.22
2023-05-10T03:42:06.155Z,100965.69
2023-05-10T03:44:34.347Z,100964.72
2023-05-10T03:47:01.235Z,100975.59
2023-05-10T03:49:28.312Z,100972.06
2023-05-10T03:51:55.326Z,100976.53
2023-05-10T03:54:22.075Z,100976.75
2023-05-10T03:56:49.034Z,100972.19
2023-05-10T03:59:17.013Z,100974.50
2023-05-10T04:01:45.128Z,100971.84
2023-05-10T04:04:11.967Z,100981.13
2023-05-10T04:06:39.208Z,100980.91
2023-05-10T04:09:06.119Z,100978.88
2023-05-10T04:11:32.918Z,100975.47
2023-05-10T04:13:59.623Z,100980.69
2023-05-10T04:16:26.449Z,100966.88
2023-05-10T04:18:54.529Z,100969.31
2023-05-10T04:21:21.290Z,100976.44
2023-05-10T04:23:48.035Z,100976.09
2023-05-10T04:26:15.091Z,100963.00
2023-05-10T04:28:41.863Z,100978.03
2023-05-10T04:31:10.085Z,100974.31
2023-05-10T04:33:37.555Z,100981.22
2023-05-10T04:36:06.661Z,100985.50
2023-05-10T04:38:33.385Z,100986.53
2023-05-10T04:41:07.575Z,100985.72
2023-05-10T04:43:34.308Z,100993.34
2023-05-10T04:46:01.039Z,100991.25
2023-05-10T04:48:27.842Z,100989.63
2023-05-10T04:50:54.547Z,101001.75
2023-05-10T04:53:22.646Z,101001.84
2023-05-10T04:55:49.412Z,101001.25
2023-05-10T04:58:16.106Z,101006.22
2023-05-10T05:00:42.949Z,101011.13
2023-05-10T05:03:09.849Z,101001.88
2023-05-10T05:05:36.617Z,101012.63
2023-05-10T05:08:03.718Z,101006.56
2023-05-10T05:10:31.801Z,101015.19
2023-05-10T05:12:58.525Z,101014.00
2023-05-10T05:15:25.244Z,101020.75
2023-05-10T05:17:52.024Z,101023.63
2023-05-10T05:20:19.026Z,101018.59
2023-05-10T05:22:45.925Z,101022.31
2023-05-10T05:25:12.654Z,101026.38
2023-05-10T05:27:41.211Z,101032.13
2023-05-10T05:30:09.348Z,101025.28
2023-05-10T05:32:36.022Z,101035.63
2023-05-10T05:35:02.902Z,101036.59
2023-05-10T05:37:29.569Z,101040.66
2023-05-10T05:39:56.269Z,101038.00
2023-05-10T05:42:22.939Z,101040.75
2023-05-10T05:44:51.003Z,101046.06
2023-05-10T05:47:17.664Z,101052.78
2023-05-10T05:49:44.542Z,101055.03
2023-05-10T05:52:11.235Z,101054.81
2023-05-10T05:54:38.354Z,101047.34
2023-05-10T05:57:05.317Z,101054.03
2023-05-10T05:59:31.977Z,101049.56
2023-05-10T06:02:00.052Z,101059.56
2023-05-10T06:04:27.161Z,101057.69
2023-05-10T06:06:54.137Z,101063.72
2023-05-10T06:09:20.968Z,101061.09
2023-05-10T06:11:47.724Z,101065.66
2023-05-10T06:14:14.404Z,101068.41
2023-05-10T06:16:41.120Z,101066.81
2023-05-10T06:19:09.212Z,101071.06
2023-05-10T06:21:35.950Z,101068.19
2023-05-10T06:24:02.660Z,101068.53
2023-05-10T06:26:29.483Z,101068.28
2023-05-10T06:28:56.650Z,101070.63
2023-05-10T06:31:23.444Z,101071.88
2023-05-10T06:33:50.412Z,101072.94
2023-05-10T06:36:18.457Z,101071.56
2023-05-10T06:38:45.416Z,101065.91
2023-05-10T06:41:12.148Z,101078.47
2023-05-10T06:43:38.962Z,101067.28
2023-05-10T06:46:06.061Z,101081.31
2023-05-10T06:48:32.846Z,101070.94
2023-05-10T06:50:59.577Z,101077.81
2023-05-10T06:53:27.814Z,101071.75
2023-05-10T06:55:54.609Z,101076.41
2023-05-10T06:58:22.548Z,101074.47
2023-05-10T07:00:49.417Z,101076.97
2023-05-10T07:03:16.350Z,101079.06
2023-05-10T07:05:43.399Z,101081.44
2023-05-10T07:08:10.175Z,101080.50
2023-05-10T07:10:38.618Z,101080.22
2023-05-10T07:13:05.492Z,101092.19
2023-05-10T07:15:32.244Z,101093.34
2023-05-10T07:17:59.175Z,101089.59
2023-05-10T07:20:26.028Z,101091.53
2023-05-10T07:22:53.113Z,101100.63
2023-05-10T07:25:19.986Z,101099.19
2023-05-10T07:27:48.157Z,101097.97
2023-05-10T07:30:15.228Z,101088.84
2023-05-10T07:32:41.960Z,101095.03
2023-05-10T07:35:09.620Z,101099.28
2023-05-10T07:37:36.396Z,101095.03
2023-05-10T07:40:03.220Z,101096.38
2023-05-10T07:42:29.942Z,101097.09
2023-05-10T07:44:58.144Z,101101.47
2023-05-10T07:47:24.932Z,101100.31
2023-05-10T07:49:51.717Z,101104.72
2023-05-10T07:52:18.674Z,101101.47
2023-05-10T07:54:45.367Z,101102.81
2023-05-10T07:57:12.082Z,101103.28
2023-05-10T07:59:38.781Z,101106.56
2023-05-10T08:02:07.290Z,101103.94
2023-05-10T08:04:34.163Z,101115.16
2023-05-10T08:07:00.956Z,101108.59
2023-05-10T08:09:27.849Z,101112.84
2023-05-10T08:11:54.579Z,101113.19
2023-05-10T08:14:21.365Z,101123.13
2023-05-10T08:16:48.053Z,101114.84
2023-05-10T08:19:16.165Z,101117.94
2023-05-10T08:21:42.859Z,101121.66
2023-05-10T08:24:09.634Z,101115.53
2023-05-10T08:26:36.340Z,101125.59
2023-05-10T08:29:03.365Z,101118.06
2023-05-10T08:31:30.222Z,101124.50
2023-05-10T08:33:57.200Z,101132.94
2023-05-10T08:36:25.467Z,101131.16
2023-05-10T08:38:52.427Z,101139.78
2023-05-10T08:41:21.204Z,101141.00
2023-05-10T08:43:48.916Z,101144.06
2023-05-10T08:46:17.942Z,101148.69
2023-05-10T08:48:45.631Z,101145.00
2023-05-10T08:51:16.234Z,101156.22
2023-05-10T08:53:46.374Z,101159.75
2023-05-10T08:56:13.170Z,101167.34
2023-05-10T08:58:40.598Z,101155.22
2023-05-10T09:01:08.478Z,101166.06
2023-05-10T09:03:36.193Z,101170.03
2023-05-10T09:06:03.280Z,101171.44
2023-05-10T09:08:30.431Z,101173.25
2023-05-10T09:10:59.104Z,101182.44
2023-05-10T09:13:26.521Z,101174.28
2023-05-10T09:15:54.741Z,101172.88
2023-05-10T09:18:21.495Z,101175.03
2023-05-10T09:20:49.342Z,101179.78
2023-05-10T09:23:16.117Z,101186.03
2023-05-10T09:25:43.374Z,101184.69
2023-05-10T09:28:12.265Z,101189.78
2023-05-10T09:30:39.021Z,101194.97
2023-05-10T09:33:06.096Z,101197.09
2023-05-10T09:35:33.883Z,101200.25
2023-05-10T09:38:02.150Z,101204.06
2023-05-10T09:40:29.913Z,101204.97
2023-05-10T09:42:58.184Z,101208.44
2023-05-10T09:45:28.795Z,101203.13
2023-05-10T09:47:55.720Z,101206.66
2023-05-10T09:50:23.230Z,101200.50
2023-05-10T09:52:52.009Z,101201.81
2023-05-10T09:55:20.515Z,101205.72
2023-05-10T09:57:47.748Z,101204.59
2023-05-10T10:00:19.063Z,101216.59
2023-05-10T10:02:49.224Z,101216.59
2023-05-10T10:05:16.394Z,101221.13
2023-05-10T10:07:43.379Z,101223.38
2023-05-10T10:10:10.874Z,101222.00
2023-05-10T10:12:37.686Z,101229.47
2023-05-10T10:15:05.539Z,101217.38
2023-05-10T10:17:33.558Z,101238.63
2023-05-10T10:20:03.514Z,101228.56
2023-05-10T10:22:30.324Z,101234.06
2023-05-10T10:24:57.100Z,101231.78
2023-05-10T10:27:29.832Z,101234.69
2023-05-10T10:30:14.237Z,101243.25
2023-05-10T10:33:00.480Z,101248.47
2023-05-10T10:35:30.277Z,101237.88
2023-05-10T10:37:57.601Z,101248.00
2023-05-10T10:40:28.886Z,101250.41
2023-05-10T10:42:56.157Z,101244.66
2023-05-10T10:45:24.551Z,101246.78
2023-05-10T10:48:20.531Z,101238.78
2023-05-10T10:50:48.807Z,101245.09
2023-05-10T10:53:15.633Z,101244.06
2023-05-10T10:55:49.032Z,101240.75
2023-05-10T10:58:30.677Z,101245.63
2023-05-10T11:01:12.117Z,101242.25
2023-05-10T11:03:39.075Z,101240.94
2023-05-10T11:06:07.673Z,101239.91
2023-05-10T11:08:42.060Z,101235.22
2023-05-10T11:11:09.319Z,101238.03
2023-05-10T11:13:40.023Z,101244.53
2023-05-10T11:16:20.863Z,101239.75
2023-05-10T11:18:54.494Z,101241.91
2023-05-10T11:21:23.208Z,101246.53
2023-05-10T11:23:51.805Z,101242.94
2023-05-10T11:26:19.071Z,101246.63
2023-05-10T11:28:48.596Z,101244.88
2023-05-10T11:31:16.242Z,101253.81
2023-05-10T11:33:46.581Z,101262.53
2023-05-10T11:36:13.586Z,101254.22
2023-05-10T11:38:41.674Z,101255.22
2023-05-10T11:41:09.810Z,101261.88
2023-05-10T11:43:36.800Z,101264.13
2023-05-10T11:46:03.842Z,101264.28
2023-05-10T11:48:30.943Z,101266.66
2023-05-10T11:50:58.125Z,101256.22
2023-05-10T11:53:27.075Z,101264.69
2023-05-10T11:55:55.343Z,101271.09
2023-05-10T11:58:22.332Z,101262.13
2023-05-10T12:00:49.723Z,101258.00
2023-05-10T12:03:16.828Z,101276.84
2023-05-10T12:05:43.684Z,101281.13
2023-05-10T12:08:14.904Z,101276.00
2023-05-10T12:10:41.818Z,101276.19
2023-05-10T12:13:13.746Z,101283.91
2023-05-10T12:15:40.768Z,101280.13
2023-05-10T12:18:10.119Z,101277.03
2023-05-10T12:20:37.262Z,101286.44
2023-05-10T12:23:04.151Z,101286.19
2023-05-10T12:25:32.528Z,101290.88
2023-05-10T12:28:01.123Z,101284.75
2023-05-10T12:30:30.399Z,101290.56
2023-05-10T12:33:01.262Z,101291.53
2023-05-10T12:35:31.284Z,101292.88
2023-05-10T12:37:58.307Z,101299.47
2023-05-10T12:40:24.983Z,101303.16
2023-05-10T12:42:51.938Z,101306.78
2023-05-10T12:45:19.137Z,101314.28
2023-05-10T12:47:47.282Z,101307.34
2023-05-10T12:50:14.264Z,101319.75
2023-05-10T12:52:41.229Z,101316.16
2023-05-10T12:55:08.807Z,101312.16
2023-05-10T12:57:35.555Z,101320.53
2023-05-10T13:00:02.478Z,101311.66
2023-05-10T13:02:29.224Z,101311.13
2023-05-10T13:04:57.423Z,101315.31
2023-05-10T13:07:24.107Z,101316.13
2023-05-10T13:09:50.741Z,101313.00
2023-05-10T13:12:17.481Z,101323.25
2023-05-10T13:14:44.295Z,101316.81
2023-05-10T13:17:11.106Z,101315.91
2023-05-10T13:19:37.992Z,101315.78
2023-05-10T13:22:06.054Z,101311.38
2023-05-10T13:24:33.136Z,101313.50
2023-05-10T13:26:59.860Z,101305.72
2023-05-10T13:29:26.654Z,101316.25
2023-05-10T13:31:53.497Z,101323.22
2023-05-10T13:34:20.282Z,101317.09
2023-05-10T13:36:47.480Z,101321.28
2023-05-10T13:39:16.045Z,101323.75
2023-05-10T13:41:43.027Z,101320.69
2023-05-10T13:44:10.127Z,101327.66
2023-05-10T13:46:36.871Z,101328.00
2023-05-10T13:49:03.871Z,101329.97
2023-05-10T13:51:31.046Z,101317.09
2023-05-10T13:53:57.825Z,101323.03
2023-05-10T13:56:25.933Z,101319.69
2023-05-10T13:58:52.811Z,101314.41
2023-05-10T14:13:33.470Z,101323.88
2023-05-10T14:16:00.244Z,101323.03
2023-05-10T14:18:27.371Z,101329.56
2023-05-10T14:20:54.257Z,101310.00
2023-05-10T14:23:21.211Z,101323.75
2023-05-10T14:25:47.842Z,101318.78
2023-05-10T14:28:14.499Z,101317.94
2023-05-10T14:30:42.502Z,101325.56
2023-05-10T14:33:09.211Z,101322.75
2023-05-10T14:35:35.950Z,101316.66
2023-05-10T14:38:03.325Z,101329.53
2023-05-10T14:40:30.013Z,101324.84
2023-05-10T14:42:57.012Z,101338.66
2023-05-10T14:45:24.198Z,101332.25
2023-05-10T14:47:52.378Z,101331.59
2023-05-10T14:50:35.102Z,101338.56
2023-05-10T14:53:03.943Z,101334.06
2023-05-10T14:55:30.670Z,101333.09
2023-05-10T14:57:57.299Z,101332.34
2023-05-10T15:00:23.976Z,101332.25
2023-05-10T15:02:52.529Z,101337.81
2023-05-10T15:05:20.160Z,101326.31
2023-05-10T15:07:47.162Z,101324.75
2023-05-10T15:10:13.761Z,101332.50
2023-05-10T15:12:40.760Z,101325.28
2023-05-10T15:15:08.229Z,101326.72
2023-05-10T15:17:35.048Z,101331.13
2023-05-10T15:20:03.660Z,101331.53
2023-05-10T15:22:31.868Z,101337.94
2023-05-10T15:24:59.104Z,101334.94
2023-05-10T15:27:25.925Z,101338.22
2023-05-10T15:29:52.578Z,101346.25
2023-05-10T15:32:19.391Z,101345.97
2023-05-10T15:34:46.154Z,101353.41
2023-05-10T15:37:14.496Z,101347.66
2023-05-10T15:39:41.189Z,101359.56
2023-05-10T15:42:08.145Z,101363.25
2023-05-10T15:44:35.208Z,101365.38
2023-05-10T15:47:02.156Z,101362.41
2023-05-10T15:49:28.914Z,101366.66
2023-05-10T15:51:55.663Z,101363.84
2023-05-10T15:54:23.801Z,101367.53
2023-05-10T15:56:50.473Z,101365.97
2023-05-10T15:59:17.142Z,101371.13
2023-05-10T16:01:43.873Z,101375.97
2023-05-10T16:04:10.709Z,101379.56
2023-05-10T16:06:37.593Z,101380.75
2023-05-10T16:09:04.292Z,101378.38
2023-05-10T16:11:32.381Z,101383.97
2023-05-10T16:13:59.745Z,101384.19
2023-05-10T16:16:26.806Z,101379.94
2023-05-10T16:18:53.825Z,101386.75
2023-05-10T16:21:20.615Z,101379.47
2023-05-10T16:23:47.369Z,101384.63
2023-05-10T16:26:14.237Z,101388.88
2023-05-10T16:28:44.388Z,101381.59
2023-05-10T16:31:11.078Z,101382.00
2023-05-10T16:33:38.472Z,101388.94
2023-05-10T16:36:06.580Z,101396.16
2023-05-10T16:38:33.466Z,101395.94
2023-05-10T16:41:02.295Z,101391.38
2023-05-10T16:43:29.274Z,101396.41
2023-05-10T16:45:57.370Z,101390.13
2023-05-10T16:48:24.084Z,101383.81
2023-05-10T16:50:50.762Z,101406.88
2023-05-10T16:53:18.002Z,101407.66
2023-05-10T16:55:45.145Z,101408.19
2023-05-10T16:58:12.188Z,101397.75
2023-05-10T17:00:38.911Z,101413.44
2023-05-10T17:03:07.185Z,101416.25
2023-05-10T17:05:34.410Z,101414.03
2023-05-10T17:08:01.301Z,101409.38
2023-05-10T17:10:28.131Z,101415.38
2023-05-10T17:12:59.502Z,101418.53
2023-05-10T17:15:26.373Z,101424.84
2023-05-10T17:17:56.443Z,101421.22
2023-05-10T17:20:25.309Z,101416.00
2023-05-10T17:22:52.487Z,101425.69
2023-05-10T17:25:20.250Z,101426.34
2023-05-10T17:27:47.754Z,101426.03
2023-05-10T17:30:15.287Z,101419.47
2023-05-10T17:32:42.106Z,101429.78
2023-05-10T17:35:11.906Z,101429.63
2023-05-10T17:37:39.988Z,101421.31
2023-05-10T17:40:09.479Z,101431.91
2023-05-10T17:42:38.664Z,101417.22
2023-05-10T17:45:06.532Z,101420.66
2023-05-10T17:47:33.432Z,101423.06
2023-05-10T17:50:00.992Z,101414.50
2023-05-10T17:52:29.357Z,101424.66
2023-05-10T17:54:58.680Z,101414.47
2023-05-10T17:57:25.394Z,101424.34
2023-05-10T17:59:53.403Z,101431.69
2023-05-10T18:02:28.805Z,101423.13
2023-05-10T18:04:59.073Z,101440.69
2023-05-10T18:07:27.323Z,101435.00
2023-05-10T18:09:56.368Z,101435.84
2023-05-10T18:12:24.970Z,101440.53
2023-05-10T18:14:51.692Z,101456.31
2023-05-10T18:17:18.875Z,101452.72
2023-05-10T18:19:47.658Z,101456.50
2023-05-10T18:22:14.700Z,101459.13
2023-05-10T18:24:41.469Z,101464.09
2023-05-10T18:27:08.283Z,101460.31
2023-05-10T18:29:54.802Z,101462.22
2023-05-10T18:32:22.860Z,101464.94
2023-05-10T18:34:49.519Z,101472.19
2023-05-10T18:37:16.554Z,101474.88
2023-05-10T18:39:44.008Z,101479.25
2023-05-10T18:42:10.818Z,101482.81
2023-05-10T18:44:38.948Z,101487.41
2023-05-10T18:47:05.620Z,101484.00
2023-05-10T18:49:32.379Z,101492.78
2023-05-10T18:51:59.098Z,101498.84
2023-05-10T18:54:25.842Z,101493.63
2023-05-10T18:56:52.484Z,101498.81
2023-05-10T18:59:19.106Z,101506.69
2023-05-10T19:01:49.454Z,101506.88
2023-05-10T19:04:17.638Z,101508.13
2023-05-10T19:06:44.488Z,101511.09
2023-05-10T19:09:11.536Z,101493.91
2023-05-10T19:11:38.313Z,101506.28
2023-05-10T19:14:05.472Z,101507.84
2023-05-10T19:16:35.297Z,101510.91
2023-05-10T19:19:04.725Z,101515.84
2023-05-10T19:21:39.806Z,101522.53
2023-05-10T19:24:07.230Z,101528.25
2023-05-10T19:26:36.321Z,101526.94
2023-05-10T19:29:03.997Z,101523.50
2023-05-10T19:31:30.809Z,101538.34
2023-05-10T19:34:00.871Z,101538.63
2023-05-10T19:36:29.395Z,101545.19
2023-05-10T19:38:56.392Z,101540.81
2023-05-10T19:41:23.693Z,101551.66
2023-05-10T19:43:50.524Z,101542.34
2023-05-10T19:46:20.161Z,101558.69
2023-05-10T19:48:52.497Z,101558.22
2023-05-10T19:51:19.615Z,101557.94
2023-05-10T19:53:47.842Z,101555.94
2023-05-10T19:56:14.734Z,101562.00
2023-05-10T19:58:41.670Z,101563.25
2023-05-10T20:01:08.444Z,101570.13
2023-05-10T20:03:35.401Z,101560.88
2023-05-10T20:06:02.537Z,101566.69
2023-05-10T20:08:29.376Z,101557.47
2023-05-10T20:10:59.216Z,101569.44
2023-05-10T20:13:26.355Z,101565.19
2023-05-10T20:15:56.228Z,101571.53
2023-05-10T20:18:23.103Z,101569.72
2023-05-10T20:20:53.405Z,101573.06
2023-05-10T20:23:20.102Z,101577.53
2023-05-10T20:25:46.854Z,101576.66
2023-05-10T20:28:15.056Z,101574.78
2023-05-10T20:30:42.154Z,101575.63
2023-05-10T20:33:09.172Z,101575.75
2023-05-10T20:35:35.911Z,101569.94
2023-05-10T20:38:03.621Z,101575.75
2023-05-10T20:40:30.441Z,101570.97
2023-05-10T20:42:57.129Z,101576.41
2023-05-10T20:45:25.556Z,101575.44
2023-05-10T20:47:52.398Z,101575.09
2023-05-10T20:50:20.498Z,101575.53
2023-05-10T20:52:49.427Z,101568.03
2023-05-10T20:55:16.215Z,101568.84
2023-05-10T20:57:42.864Z,101571.28
2023-05-10T21:00:10.670Z,101573.16
2023-05-10T21:02:38.773Z,101569.53
2023-05-10T21:05:07.349Z,101577.06
2023-05-10T21:07:34.470Z,101579.66
2023-05-10T21:10:01.291Z,101572.97
2023-05-10T21:12:28.075Z,101575.16
2023-05-10T21:14:54.906Z,101576.19
2023-05-10T21:17:21.632Z,101571.06
2023-05-10T21:19:49.772Z,101576.13
2023-05-10T21:22:16.614Z,101566.31
2023-05-10T21:24:43.670Z,101573.81
2023-05-10T21:27:10.781Z,101572.56
2023-05-10T21:29:37.516Z,101571.22
2023-05-10T21:32:04.828Z,101562.00
2023-05-10T21:34:32.081Z,101573.47
2023-05-10T21:37:00.354Z,101555.75
2023-05-10T21:39:27.157Z,101564.31
2023-05-10T21:41:54.018Z,101563.94
2023-05-10T21:44:21.047Z,101559.22
2023-05-10T21:46:47.681Z,101565.81
2023-05-10T21:49:14.495Z,101570.59
2023-05-10T21:51:41.116Z,101573.34
2023-05-10T21:54:09.151Z,101581.31
2023-05-10T21:56:35.854Z,101579.53
2023-05-10T21:59:03.082Z,101577.22
2023-05-10T22:01:30.008Z,101579.59
2023-05-10T22:03:57.090Z,101584.75
2023-05-10T22:06:24.284Z,101576.50
2023-05-10T22:08:51.136Z,101572.13
2023-05-10T22:11:19.293Z,101564.72
2023-05-10T22:13:46.184Z,101571.94
2023-05-10T22:16:14.193Z,101574.25
2023-05-10T22:18:41.410Z,101567.78
2023-05-10T22:21:09.979Z,101569.31
2023-05-10T22:23:36.779Z,101576.06
2023-05-10T22:26:04.094Z,101564.66
2023-05-10T22:28:32.166Z,101574.00
2023-05-10T22:30:59.294Z,101576.94
2023-05-10T22:33:26.156Z,101566.47
2023-05-10T22:35:52.911Z,101564.22
2023-05-10T22:38:19.795Z,101561.66
2023-05-10T22:40:46.510Z,101573.88
2023-05-10T22:43:13.198Z,101580.19
2023-05-10T22:45:41.441Z,101579.22
2023-05-10T22:48:09.090Z,101576.75
2023-05-10T22:50:36.072Z,101578.88
2023-05-10T22:53:03.025Z,101571.03
2023-05-10T22:55:30.368Z,101580.94
2023-05-10T22:57:57.212Z,101573.69
2023-05-10T23:00:24.036Z,101572.69
2023-05-10T23:02:55.109Z,101574.25
2023-05-10T23:05:21.845Z,101581.78
2023-05-10T23:07:48.582Z,101586.38
2023-05-10T23:10:15.469Z,101586.84
2023-05-10T23:12:42.209Z,101583.22
2023-05-10T23:15:09.949Z,101583.03
2023-05-10T23:17:36.996Z,101584.69
2023-05-10T23:20:06.160Z,101575.84
2023-05-10T23:22:33.058Z,101587.91
2023-05-10T23:24:59.809Z,101587.91
2023-05-10T23:27:28.794Z,101581.63
2023-05-10T23:29:55.697Z,101581.34
2023-05-10T23:32:22.930Z,101589.31
2023-05-10T23:34:49.633Z,101591.31
2023-05-10T23:37:18.035Z,101598.28
2023-05-10T23:39:44.725Z,101594.75
2023-05-10T23:42:11.424Z,101596.56
2023-05-10T23:44:38.086Z,101594.84
2023-05-10T23:47:04.793Z,101592.19
2023-05-10T23:49:31.492Z,101591.31
2023-05-10T23:51:58.261Z,101601.88
2023-05-10T23:54:26.442Z,101596.25
2023-05-10T23:56:53.284Z,101596.25
2023-05-10T23:59:19.939Z,101595.44
